sensor_id;sensor_type;location;lat;lon;timestamp;pressure;altitude;pressure_sealevel;temperature;humidity
20015;BME280;61787;42.022;23.078;2022-07-29T00:00:12;96882.59;;;21.09;100.00
20015;BME280;61787;42.022;23.078;2022-07-29T00:01:15;96882.28;;;21.00;100.00
20015;BME280;61787;42.022;23.078;2022-07-29T00:02:20;96878.03;;;20.92;100.00
20015;BME280;61787;42.022;23.078;2022-07-29T00:03:21;96880.38;;;20.90;100.00
20015;BME280;61787;42.022;23.078;2022-07-29T00:04:23;96881.13;;;20.94;100.00
20015;BME280;61787;42.022;23.078;2022-07-29T00:05:25;96875.25;;;21.02;100.00
20015;BME280;61787;42.022;23.078;2022-07-29T00:06:27;96879.47;;;21.14;100.00
20015;BME280;61787;42.022;23.078;2022-07-29T00:07:28;96880.97;;;21.25;100.00
20015;BME280;61787;42.022;23.078;2022-07-29T00:08:30;96880.91;;;21.33;100.00
20015;BME280;61787;42.022;23.078;2022-07-29T00:09:32;96881.63;;;21.40;100.00
20015;BME280;61787;42.022;23.078;2022-07-29T00:10:42;96881.97;;;21.49;100.00
20015;BME280;61787;42.022;23.078;2022-07-29T00:11:44;96883.06;;;21.59;100.00
20015;BME280;61787;42.022;23.078;2022-07-29T00:12:45;96879.84;;;21.67;100.00
20015;BME280;61787;42.022;23.078;2022-07-29T00:13:47;96872.84;;;21.66;100.00
20015;BME280;61787;42.022;23.078;2022-07-29T00:14:55;96874.47;;;21.57;99.37
20015;BME280;61787;42.022;23.078;2022-07-29T00:15:57;96870.72;;;21.40;98.61
20015;BME280;61787;42.022;23.078;2022-07-29T00:17:05;96872.31;;;21.34;98.18
20015;BME280;61787;42.022;23.078;2022-07-29T00:18:07;96869.22;;;21.32;98.27
20015;BME280;61787;42.022;23.078;2022-07-29T00:19:08;96871.13;;;21.35;98.33
20015;BME280;61787;42.022;23.078;2022-07-29T00:20:11;96869.53;;;21.41;97.47
20015;BME280;61787;42.022;23.078;2022-07-29T00:21:13;96874.56;;;21.46;96.22
20015;BME280;61787;42.022;23.078;2022-07-29T00:22:14;96874.47;;;21.57;95.38
20015;BME280;61787;42.022;23.078;2022-07-29T00:23:16;96872.56;;;21.54;94.74
20015;BME280;61787;42.022;23.078;2022-07-29T00:24:18;96872.97;;;21.52;94.17
20015;BME280;61787;42.022;23.078;2022-07-29T00:25:19;96862.09;;;21.45;93.96
20015;BME280;61787;42.022;23.078;2022-07-29T00:26:21;96875.38;;;21.40;94.58
20015;BME280;61787;42.022;23.078;2022-07-29T00:27:23;96872.31;;;21.34;94.96
20015;BME280;61787;42.022;23.078;2022-07-29T00:28:24;96866.50;;;21.32;95.36
20015;BME280;61787;42.022;23.078;2022-07-29T00:29:26;96867.59;;;21.42;94.84
20015;BME280;61787;42.022;23.078;2022-07-29T00:30:35;96870.28;;;21.45;94.86
20015;BME280;61787;42.022;23.078;2022-07-29T00:31:37;96872.25;;;21.41;95.48
20015;BME280;61787;42.022;23.078;2022-07-29T00:32:39;96874.22;;;21.41;96.03
20015;BME280;61787;42.022;23.078;2022-07-29T00:33:41;96876.97;;;21.37;96.56
20015;BME280;61787;42.022;23.078;2022-07-29T00:34:42;96875.84;;;21.31;97.45
20015;BME280;61787;42.022;23.078;2022-07-29T00:36:02;96875.53;;;21.22;98.71
20015;BME280;61787;42.022;23.078;2022-07-29T00:37:04;96881.00;;;21.22;99.07
20015;BME280;61787;42.022;23.078;2022-07-29T00:38:08;96870.81;;;21.26;99.26
20015;BME280;61787;42.022;23.078;2022-07-29T00:39:09;96866.94;;;21.27;99.75
20015;BME280;61787;42.022;23.078;2022-07-29T00:40:11;96875.06;;;21.31;99.73
20015;BME280;61787;42.022;23.078;2022-07-29T00:41:13;96873.13;;;21.31;100.00
20015;BME280;61787;42.022;23.078;2022-07-29T00:42:15;96870.44;;;21.27;100.00
20015;BME280;61787;42.022;23.078;2022-07-29T00:43:17;96871.22;;;21.28;100.00
20015;BME280;61787;42.022;23.078;2022-07-29T00:44:19;96872.31;;;21.34;99.92
20015;BME280;61787;42.022;23.078;2022-07-29T00:45:21;96872.31;;;21.34;99.99
20015;BME280;61787;42.022;23.078;2022-07-29T00:46:23;96874.69;;;21.32;99.94
20015;BME280;61787;42.022;23.078;2022-07-29T00:47:25;96875.47;;;21.29;99.61
20015;BME280;61787;42.022;23.078;2022-07-29T00:48:26;96874.72;;;21.25;99.65
20015;BME280;61787;42.022;23.078;2022-07-29T00:49:28;96879.44;;;21.21;99.91
20015;BME280;61787;42.022;23.078;2022-07-29T00:50:31;96872.78;;;21.25;100.00
20015;BME280;61787;42.022;23.078;2022-07-29T00:51:37;96872.38;;;21.27;99.67
20015;BME280;61787;42.022;23.078;2022-07-29T00:52:40;96875.84;;;21.31;99.23
20015;BME280;61787;42.022;23.078;2022-07-29T00:53:42;96880.13;;;21.32;98.57
20015;BME280;61787;42.022;23.078;2022-07-29T00:54:44;96875.81;;;21.38;98.54
20015;BME280;61787;42.022;23.078;2022-07-29T00:55:46;96875.00;;;21.41;98.36
20015;BME280;61787;42.022;23.078;2022-07-29T00:56:49;96882.78;;;21.43;97.82
20015;BME280;61787;42.022;23.078;2022-07-29T00:57:51;96881.59;;;21.47;97.38
20015;BME280;61787;42.022;23.078;2022-07-29T00:58:53;96880.84;;;21.43;97.41
20015;BME280;61787;42.022;23.078;2022-07-29T00:59:56;96873.13;;;21.31;99.17
20015;BME280;61787;42.022;23.078;2022-07-29T01:00:58;96881.78;;;21.19;99.53
20015;BME280;61787;42.022;23.078;2022-07-29T01:02:00;96883.78;;;21.08;100.00
20015;BME280;61787;42.022;23.078;2022-07-29T01:03:02;96886.59;;;20.97;100.00
20015;BME280;61787;42.022;23.078;2022-07-29T01:04:06;96879.53;;;21.00;100.00
20015;BME280;61787;42.022;23.078;2022-07-29T01:05:08;96879.53;;;21.00;100.00
20015;BME280;61787;42.022;23.078;2022-07-29T01:06:10;96884.97;;;21.07;100.00
20015;BME280;61787;42.022;23.078;2022-07-29T01:07:12;96884.53;;;21.12;100.00
20015;BME280;61787;42.022;23.078;2022-07-29T01:08:15;96887.25;;;21.12;100.00
20015;BME280;61787;42.022;23.078;2022-07-29T01:09:18;96884.19;;;21.06;100.00
20015;BME280;61787;42.022;23.078;2022-07-29T01:10:38;96871.75;;;21.02;100.00
20015;BME280;61787;42.022;23.078;2022-07-29T01:11:42;96874.09;;;21.00;100.00
20015;BME280;61787;42.022;23.078;2022-07-29T01:12:46;96877.19;;;21.02;100.00
20015;BME280;61787;42.022;23.078;2022-07-29T01:13:49;96869.06;;;20.95;100.00
20015;BME280;61787;42.022;23.078;2022-07-29T01:14:52;96867.97;;;20.81;100.00
20015;BME280;61787;42.022;23.078;2022-07-29T01:15:58;96878.88;;;20.81;99.26
20015;BME280;61787;42.022;23.078;2022-07-29T01:17:11;96879.94;;;20.98;98.94
20015;BME280;61787;42.022;23.078;2022-07-29T01:18:22;96881.41;;;21.10;98.35
20015;BME280;61787;42.022;23.078;2022-07-29T01:27:47;96879.91;;;21.60;93.65
20015;BME280;61787;42.022;23.078;2022-07-29T01:29:02;96883.81;;;21.59;91.95
20015;BME280;61787;42.022;23.078;2022-07-29T01:30:08;96883.88;;;21.52;89.55
20015;BME280;61787;42.022;23.078;2022-07-29T01:31:16;96884.63;;;21.56;89.44
20015;BME280;61787;42.022;23.078;2022-07-29T01:32:29;96887.00;;;21.54;89.67
20015;BME280;61787;42.022;23.078;2022-07-29T01:33:38;96885.00;;;21.58;89.84
20015;BME280;61787;42.022;23.078;2022-07-29T01:36:13;96888.78;;;21.72;90.54
20015;BME280;61787;42.022;23.078;2022-07-29T01:37:26;96881.31;;;21.76;91.44
20015;BME280;61787;42.022;23.078;2022-07-29T01:38:29;96887.56;;;21.80;92.11
20015;BME280;61787;42.022;23.078;2022-07-29T01:39:33;96890.25;;;21.83;92.76
20015;BME280;61787;42.022;23.078;2022-07-29T01:40:46;96886.72;;;21.83;93.06
20015;BME280;61787;42.022;23.078;2022-07-29T01:43:14;96887.84;;;21.89;92.47
20015;BME280;61787;42.022;23.078;2022-07-29T01:44:27;96886.69;;;21.90;92.77
20015;BME280;61787;42.022;23.078;2022-07-29T01:45:37;96887.84;;;21.89;93.30
20015;BME280;61787;42.022;23.078;2022-07-29T01:46:45;96888.69;;;21.82;93.38
20015;BME280;61787;42.022;23.078;2022-07-29T01:49:20;96875.22;;;21.64;94.61
20015;BME280;61787;42.022;23.078;2022-07-29T01:50:31;96884.50;;;21.70;94.95
20015;BME280;61787;42.022;23.078;2022-07-29T01:51:58;96882.53;;;21.75;94.92
20015;BME280;61787;42.022;23.078;2022-07-29T01:53:04;96883.31;;;21.72;94.59
20015;BME280;61787;42.022;23.078;2022-07-29T01:54:16;96881.38;;;21.72;94.92
20015;BME280;61787;42.022;23.078;2022-07-29T01:55:22;96876.00;;;21.61;94.55
20015;BME280;61787;42.022;23.078;2022-07-29T01:56:27;96877.72;;;21.41;91.65
20015;BME280;61787;42.022;23.078;2022-07-29T01:57:35;96879.47;;;21.14;90.41
20015;BME280;61787;42.022;23.078;2022-07-29T01:58:41;96878.03;;;20.92;91.50
20015;BME280;61787;42.022;23.078;2022-07-29T01:59:45;96875.03;;;20.68;91.11
20015;BME280;61787;42.022;23.078;2022-07-29T02:00:48;96873.97;;;20.52;93.08
20015;BME280;61787;42.022;23.078;2022-07-29T02:01:53;96875.94;;;20.44;94.35
20015;BME280;61787;42.022;23.078;2022-07-29T02:02:57;96878.69;;;20.33;95.71
20015;BME280;61787;42.022;23.078;2022-07-29T02:04:03;96882.97;;;20.24;97.34
20015;BME280;61787;42.022;23.078;2022-07-29T02:05:08;96874.47;;;20.15;98.01
20015;BME280;61787;42.022;23.078;2022-07-29T02:06:16;96881.88;;;20.00;96.86
20015;BME280;61787;42.022;23.078;2022-07-29T02:07:21;96871.00;;;19.89;96.78
20015;BME280;61787;42.022;23.078;2022-07-29T02:08:25;96882.28;;;19.81;97.14
20015;BME280;61787;42.022;23.078;2022-07-29T02:09:28;96882.69;;;19.72;97.83
20015;BME280;61787;42.022;23.078;2022-07-29T02:10:32;96870.66;;;19.66;97.25
20015;BME280;61787;42.022;23.078;2022-07-29T02:11:35;96882.31;;;19.63;98.42
20015;BME280;61787;42.022;23.078;2022-07-29T02:12:39;96880.38;;;19.67;98.96
20015;BME280;61787;42.022;23.078;2022-07-29T02:13:42;96880.00;;;19.69;97.64
20015;BME280;61787;42.022;23.078;2022-07-29T02:14:48;96872.97;;;19.71;96.96
20015;BME280;61787;42.022;23.078;2022-07-29T02:15:51;96884.22;;;19.80;97.62
20015;BME280;61787;42.022;23.078;2022-07-29T02:16:55;96876.84;;;19.84;97.82
20015;BME280;61787;42.022;23.078;2022-07-29T02:18:08;96883.44;;;19.97;97.06
20015;BME280;61787;42.022;23.078;2022-07-29T02:19:12;96878.34;;;20.14;96.24
20015;BME280;61787;42.022;23.078;2022-07-29T02:20:15;96882.59;;;20.25;96.16
20015;BME280;61787;42.022;23.078;2022-07-29T02:21:22;96885.28;;;20.39;95.79
20015;BME280;61787;42.022;23.078;2022-07-29T02:22:26;96881.34;;;20.48;94.75
20015;BME280;61787;42.022;23.078;2022-07-29T02:23:31;96882.91;;;20.52;92.70
20015;BME280;61787;42.022;23.078;2022-07-29T02:24:52;96878.69;;;20.30;90.84
20015;BME280;61787;42.022;23.078;2022-07-29T02:25:56;96873.28;;;20.12;92.12
20015;BME280;61787;42.022;23.078;2022-07-29T02:26:59;96874.50;;;19.97;93.14
20015;BME280;61787;42.022;23.078;2022-07-29T02:28:04;96878.78;;;19.91;93.51
20015;BME280;61787;42.022;23.078;2022-07-29T02:29:08;96881.91;;;19.82;93.54
20015;BME280;61787;42.022;23.078;2022-07-29T02:30:11;96879.19;;;19.79;94.07
20015;BME280;61787;42.022;23.078;2022-07-29T02:31:15;96874.53;;;19.72;93.66
20015;BME280;61787;42.022;23.078;2022-07-29T02:32:18;96875.31;;;19.69;94.54
20015;BME280;61787;42.022;23.078;2022-07-29T02:33:21;96874.53;;;19.65;94.88
20015;BME280;61787;42.022;23.078;2022-07-29T02:34:24;96872.19;;;19.60;96.45
20015;BME280;61787;42.022;23.078;2022-07-29T02:35:26;96873.78;;;19.54;95.78
20015;BME280;61787;42.022;23.078;2022-07-29T02:36:36;96873.78;;;19.47;96.56
20015;BME280;61787;42.022;23.078;2022-07-29T02:37:38;96880.78;;;19.48;96.68
20015;BME280;61787;42.022;23.078;2022-07-29T02:38:42;96880.78;;;19.48;97.35
20015;BME280;61787;42.022;23.078;2022-07-29T02:39:55;96876.84;;;19.31;97.49
20015;BME280;61787;42.022;23.078;2022-07-29T02:40:58;96878.38;;;19.14;98.72
20015;BME280;61787;42.022;23.078;2022-07-29T02:42:03;96875.28;;;19.12;99.51
20015;BME280;61787;42.022;23.078;2022-07-29T02:43:08;96871.38;;;19.13;100.00
20015;BME280;61787;42.022;23.078;2022-07-29T02:44:18;96873.72;;;19.08;100.00
20015;BME280;61787;42.022;23.078;2022-07-29T02:45:21;96870.22;;;19.07;100.00
20015;BME280;61787;42.022;23.078;2022-07-29T02:46:33;96871.00;;;18.97;100.00
20015;BME280;61787;42.022;23.078;2022-07-29T02:47:47;96870.19;;;18.93;100.00
20015;BME280;61787;42.022;23.078;2022-07-29T02:49:10;96872.91;;;18.93;100.00
20015;BME280;61787;42.022;23.078;2022-07-29T02:50:24;96881.44;;;18.88;100.00
20015;BME280;61787;42.022;23.078;2022-07-29T02:51:33;96883.00;;;18.89;100.00
20015;BME280;61787;42.022;23.078;2022-07-29T02:52:47;96879.50;;;18.85;100.00
20015;BME280;61787;42.022;23.078;2022-07-29T02:53:56;96874.84;;;18.86;100.00
20015;BME280;61787;42.022;23.078;2022-07-29T02:55:14;96876.00;;;18.81;100.00
20015;BME280;61787;42.022;23.078;2022-07-29T02:56:17;96876.75;;;18.78;100.00
20015;BME280;61787;42.022;23.078;2022-07-29T02:57:30;96875.22;;;18.77;100.00
20015;BME280;61787;42.022;23.078;2022-07-29T02:58:46;96879.09;;;18.76;100.00
20015;BME280;61787;42.022;23.078;2022-07-29T02:59:51;96875.22;;;18.77;100.00
20015;BME280;61787;42.022;23.078;2022-07-29T03:01:21;96875.22;;;18.77;100.00
20015;BME280;61787;42.022;23.078;2022-07-29T03:02:25;96876.00;;;18.81;100.00
20015;BME280;61787;42.022;23.078;2022-07-29T03:03:34;96875.22;;;18.81;100.00
20015;BME280;61787;42.022;23.078;2022-07-29T03:04:40;96872.91;;;18.86;100.00
20015;BME280;61787;42.022;23.078;2022-07-29T03:05:43;96873.28;;;18.88;100.00
20015;BME280;61787;42.022;23.078;2022-07-29T03:06:45;96878.34;;;18.90;100.00
20015;BME280;61787;42.022;23.078;2022-07-29T03:07:53;96872.53;;;18.88;100.00
20015;BME280;61787;42.022;23.078;2022-07-29T03:08:57;96879.91;;;18.87;100.00
20015;BME280;61787;42.022;23.078;2022-07-29T03:10:01;96882.25;;;18.92;100.00
20015;BME280;61787;42.022;23.078;2022-07-29T03:11:03;96878.34;;;18.93;100.00
20015;BME280;61787;42.022;23.078;2022-07-29T03:12:06;96882.25;;;18.92;100.00
20015;BME280;61787;42.022;23.078;2022-07-29T03:13:09;96872.91;;;18.93;100.00
20015;BME280;61787;42.022;23.078;2022-07-29T03:14:12;96879.16;;;18.97;100.00
20015;BME280;61787;42.022;23.078;2022-07-29T03:15:14;96873.34;;;19.02;100.00
20015;BME280;61787;42.022;23.078;2022-07-29T03:16:18;96872.94;;;19.04;100.00
20015;BME280;61787;42.022;23.078;2022-07-29T03:17:21;96883.03;;;19.10;100.00
20015;BME280;61787;42.022;23.078;2022-07-29T03:18:23;96879.53;;;19.13;100.00
20015;BME280;61787;42.022;23.078;2022-07-29T03:19:26;96880.34;;;19.17;100.00
20015;BME280;61787;42.022;23.078;2022-07-29T03:20:28;96879.16;;;19.26;100.00
20015;BME280;61787;42.022;23.078;2022-07-29T03:21:30;96881.88;;;19.26;100.00
20015;BME280;61787;42.022;23.078;2022-07-29T03:22:32;96881.50;;;19.31;100.00
20015;BME280;61787;42.022;23.078;2022-07-29T03:23:34;96882.28;;;19.35;100.00
20015;BME280;61787;42.022;23.078;2022-07-29T03:24:37;96879.56;;;19.35;100.00
20015;BME280;61787;42.022;23.078;2022-07-29T03:25:39;96881.53;;;19.38;100.00
20015;BME280;61787;42.022;23.078;2022-07-29T03:26:41;96880.72;;;19.30;100.00
20015;BME280;61787;42.022;23.078;2022-07-29T03:27:43;96886.94;;;19.31;100.00
20015;BME280;61787;42.022;23.078;2022-07-29T03:28:45;96888.13;;;19.37;100.00
20015;BME280;61787;42.022;23.078;2022-07-29T03:29:47;96889.69;;;19.38;100.00
20015;BME280;61787;42.022;23.078;2022-07-29T03:30:50;96896.28;;;19.37;100.00
20015;BME280;61787;42.022;23.078;2022-07-29T03:31:52;96893.97;;;19.39;100.00
20015;BME280;61787;42.022;23.078;2022-07-29T03:32:54;96898.22;;;19.33;100.00
20015;BME280;61787;42.022;23.078;2022-07-29T03:33:59;96890.03;;;19.29;100.00
20015;BME280;61787;42.022;23.078;2022-07-29T03:35:01;96890.03;;;19.26;100.00
20015;BME280;61787;42.022;23.078;2022-07-29T03:36:03;96891.22;;;19.21;100.00
20015;BME280;61787;42.022;23.078;2022-07-29T03:37:05;96886.16;;;19.20;100.00
20015;BME280;61787;42.022;23.078;2022-07-29T03:38:07;96888.50;;;19.17;100.00
20015;BME280;61787;42.022;23.078;2022-07-29T03:39:10;96896.63;;;19.14;100.00
20015;BME280;61787;42.022;23.078;2022-07-29T03:41:40;96896.59;;;19.03;100.00
20015;BME280;61787;42.022;23.078;2022-07-29T03:42:43;96896.97;;;18.98;100.00
20015;BME280;61787;42.022;23.078;2022-07-29T03:43:47;96892.34;;;18.92;100.00
20015;BME280;61787;42.022;23.078;2022-07-29T03:44:52;96894.66;;;18.86;100.00
20015;BME280;61787;42.022;23.078;2022-07-29T03:45:56;96889.19;;;18.79;100.00
20015;BME280;61787;42.022;23.078;2022-07-29T03:46:59;96889.97;;;18.76;100.00
20015;BME280;61787;42.022;23.078;2022-07-29T03:48:08;96892.66;;;18.72;100.00
20015;BME280;61787;42.022;23.078;2022-07-29T03:49:11;96897.34;;;18.72;100.00
20015;BME280;61787;42.022;23.078;2022-07-29T03:50:15;96902.34;;;18.70;100.00
20015;BME280;61787;42.022;23.078;2022-07-29T03:51:17;96898.84;;;18.69;100.00
20015;BME280;61787;42.022;23.078;2022-07-29T03:52:34;96896.50;;;18.68;100.00
20015;BME280;61787;42.022;23.078;2022-07-29T03:53:36;96903.13;;;18.67;100.00
20015;BME280;61787;42.022;23.078;2022-07-29T03:54:38;96892.28;;;18.67;100.00
20015;BME280;61787;42.022;23.078;2022-07-29T03:55:43;96903.50;;;18.69;100.00
20015;BME280;61787;42.022;23.078;2022-07-29T03:56:48;96898.47;;;18.71;100.00
20015;BME280;61787;42.022;23.078;2022-07-29T03:57:54;96897.72;;;18.74;100.00
20015;BME280;61787;42.022;23.078;2022-07-29T03:58:58;96897.72;;;18.78;100.00
20015;BME280;61787;42.022;23.078;2022-07-29T04:00:01;96903.91;;;18.78;100.00
20015;BME280;61787;42.022;23.078;2022-07-29T04:01:06;96903.16;;;18.88;100.00
20015;BME280;61787;42.022;23.078;2022-07-29T04:02:09;96900.09;;;18.93;100.00
20015;BME280;61787;42.022;23.078;2022-07-29T04:03:11;96902.03;;;18.93;100.00
20015;BME280;61787;42.022;23.078;2022-07-29T04:04:16;96897.00;;;18.95;100.00
20015;BME280;61787;42.022;23.078;2022-07-29T04:05:19;96898.56;;;18.92;100.00
20015;BME280;61787;42.022;23.078;2022-07-29T04:06:20;96899.31;;;18.89;100.00
20015;BME280;61787;42.022;23.078;2022-07-29T04:07:22;96899.31;;;18.89;100.00
20015;BME280;61787;42.022;23.078;2022-07-29T04:08:24;96895.81;;;18.85;100.00
20015;BME280;61787;42.022;23.078;2022-07-29T04:09:25;96893.88;;;18.86;100.00
20015;BME280;61787;42.022;23.078;2022-07-29T04:10:27;96894.63;;;18.83;100.00
20015;BME280;61787;42.022;23.078;2022-07-29T04:11:32;96895.03;;;18.81;100.00
20015;BME280;61787;42.022;23.078;2022-07-29T04:12:54;96896.97;;;18.84;100.00
20015;BME280;61787;42.022;23.078;2022-07-29T04:13:56;96900.88;;;18.90;100.00
20015;BME280;61787;42.022;23.078;2022-07-29T04:14:57;96897.38;;;18.93;100.00
20015;BME280;61787;42.022;23.078;2022-07-29T04:15:59;96893.13;;;18.92;100.00
20015;BME280;61787;42.022;23.078;2022-07-29T04:17:02;96902.41;;;18.91;100.00
20015;BME280;61787;42.022;23.078;2022-07-29T04:18:04;96895.44;;;18.90;100.00
20015;BME280;61787;42.022;23.078;2022-07-29T04:19:07;96894.66;;;18.93;100.00
20015;BME280;61787;42.022;23.078;2022-07-29T04:20:09;96893.13;;;18.96;100.00
20015;BME280;61787;42.022;23.078;2022-07-29T04:21:13;96893.50;;;19.01;100.00
20015;BME280;61787;42.022;23.078;2022-07-29T04:22:15;96899.34;;;19.10;100.00
20015;BME280;61787;42.022;23.078;2022-07-29T04:23:17;96900.16;;;19.18;100.00
20015;BME280;61787;42.022;23.078;2022-07-29T04:24:19;96898.97;;;19.19;100.00
20015;BME280;61787;42.022;23.078;2022-07-29T04:25:21;96908.69;;;19.16;100.00
20015;BME280;61787;42.022;23.078;2022-07-29T04:26:23;96908.28;;;19.14;100.00
20015;BME280;61787;42.022;23.078;2022-07-29T04:27:25;96900.91;;;19.18;100.00
20015;BME280;61787;42.022;23.078;2022-07-29T04:28:26;96902.47;;;19.27;100.00
20015;BME280;61787;42.022;23.078;2022-07-29T04:29:28;96893.94;;;19.32;100.00
20015;BME280;61787;42.022;23.078;2022-07-29T04:30:31;96896.28;;;19.37;100.00
20015;BME280;61787;42.022;23.078;2022-07-29T04:31:33;96893.19;;;19.45;100.00
20015;BME280;61787;42.022;23.078;2022-07-29T04:32:34;96897.06;;;19.55;100.00
20015;BME280;61787;42.022;23.078;2022-07-29T04:33:36;96895.91;;;19.70;100.00
20015;BME280;61787;42.022;23.078;2022-07-29T04:34:38;96899.78;;;19.87;100.00
20015;BME280;61787;42.022;23.078;2022-07-29T04:35:39;96895.50;;;20.00;100.00
20015;BME280;61787;42.022;23.078;2022-07-29T04:36:52;96893.88;;;20.20;100.00
20015;BME280;61787;42.022;23.078;2022-07-29T04:37:54;96896.22;;;20.36;100.00
20015;BME280;61787;42.022;23.078;2022-07-29T04:38:55;96903.16;;;20.48;100.00
20015;BME280;61787;42.022;23.078;2022-07-29T04:39:57;96903.53;;;20.57;100.00
20015;BME280;61787;42.022;23.078;2022-07-29T04:40:59;96905.00;;;20.68;100.00
20015;BME280;61787;42.022;23.078;2022-07-29T04:42:00;96906.13;;;20.81;100.00
20015;BME280;61787;42.022;23.078;2022-07-29T04:43:02;96899.84;;;20.92;100.00
20015;BME280;61787;42.022;23.078;2022-07-29T04:44:06;96904.09;;;21.00;100.00
20015;BME280;61787;42.022;23.078;2022-07-29T04:45:09;96901.31;;;21.07;100.00
20015;BME280;61787;42.022;23.078;2022-07-29T04:46:11;96911.03;;;21.18;98.72
20015;BME280;61787;42.022;23.078;2022-07-29T04:47:12;96912.91;;;21.25;98.17
20015;BME280;61787;42.022;23.078;2022-07-29T04:48:14;96904.69;;;21.32;98.00
20015;BME280;61787;42.022;23.078;2022-07-29T04:49:16;96901.53;;;21.37;97.68
20015;BME280;61787;42.022;23.078;2022-07-29T04:50:17;96910.84;;;21.43;97.17
20015;BME280;61787;42.022;23.078;2022-07-29T04:51:19;96904.59;;;21.46;95.78
20015;BME280;61787;42.022;23.078;2022-07-29T04:52:21;96908.06;;;21.50;94.31
20015;BME280;61787;42.022;23.078;2022-07-29T04:53:22;96909.56;;;21.58;94.15
20015;BME280;61787;42.022;23.078;2022-07-29T04:54:24;96910.28;;;21.66;93.56
20015;BME280;61787;42.022;23.078;2022-07-29T04:55:26;96908.63;;;21.76;92.70
20015;BME280;61787;42.022;23.078;2022-07-29T04:56:28;96908.94;;;21.85;92.55
20015;BME280;61787;42.022;23.078;2022-07-29T04:57:30;96906.13;;;21.92;91.86
20015;BME280;61787;42.022;23.078;2022-07-29T04:58:34;96911.97;;;21.97;91.66
20015;BME280;61787;42.022;23.078;2022-07-29T04:59:36;96915.44;;;22.05;91.20
20015;BME280;61787;42.022;23.078;2022-07-29T05:00:38;96906.03;;;22.06;91.24
20015;BME280;61787;42.022;23.078;2022-07-29T05:01:40;96903.75;;;22.01;90.39
20015;BME280;61787;42.022;23.078;2022-07-29T05:02:43;96910.06;;;21.94;90.15
20015;BME280;61787;42.022;23.078;2022-07-29T05:03:45;96904.19;;;21.96;91.47
20015;BME280;61787;42.022;23.078;2022-07-29T05:04:46;96916.16;;;22.09;91.64
20015;BME280;61787;42.022;23.078;2022-07-29T05:05:48;96903.47;;;22.29;90.79
20015;BME280;61787;42.022;23.078;2022-07-29T05:06:50;96905.53;;;22.52;89.75
20015;BME280;61787;42.022;23.078;2022-07-29T05:07:52;96905.31;;;22.70;89.26
20015;BME280;61787;42.022;23.078;2022-07-29T05:08:53;96908.28;;;22.86;89.00
20015;BME280;61787;42.022;23.078;2022-07-29T05:09:55;96907.31;;;23.00;87.30
20015;BME280;61787;42.022;23.078;2022-07-29T05:10:58;96911.50;;;23.08;86.55
20015;BME280;61787;42.022;23.078;2022-07-29T05:12:12;96916.50;;;23.13;86.34
20015;BME280;61787;42.022;23.078;2022-07-29T05:13:13;96915.63;;;23.19;85.17
20015;BME280;61787;42.022;23.078;2022-07-29T05:14:15;96912.84;;;23.23;85.45
20015;BME280;61787;42.022;23.078;2022-07-29T05:15:17;96910.91;;;23.23;84.81
20015;BME280;61787;42.022;23.078;2022-07-29T05:16:19;96913.16;;;23.28;84.54
20015;BME280;61787;42.022;23.078;2022-07-29T05:17:21;96913.88;;;23.32;84.47
20015;BME280;61787;42.022;23.078;2022-07-29T05:18:24;96911.84;;;23.36;84.29
20015;BME280;61787;42.022;23.078;2022-07-29T05:19:26;96908.63;;;23.45;83.22
20015;BME280;61787;42.022;23.078;2022-07-29T05:20:29;96911.66;;;23.51;83.18
20015;BME280;61787;42.022;23.078;2022-07-29T05:21:31;96914.31;;;23.58;83.00
20015;BME280;61787;42.022;23.078;2022-07-29T05:22:33;96911.09;;;23.63;82.60
20015;BME280;61787;42.022;23.078;2022-07-29T05:23:35;96913.28;;;23.71;81.85
20015;BME280;61787;42.022;23.078;2022-07-29T05:24:36;96915.84;;;23.82;81.64
20015;BME280;61787;42.022;23.078;2022-07-29T05:25:38;96916.56;;;23.86;81.32
20015;BME280;61787;42.022;23.078;2022-07-29T05:26:44;96904.31;;;23.94;81.30
20015;BME280;61787;42.022;23.078;2022-07-29T05:27:46;96908.81;;;24.04;81.96
20015;BME280;61787;42.022;23.078;2022-07-29T05:28:51;96903.94;;;24.15;80.08
20015;BME280;61787;42.022;23.078;2022-07-29T05:29:53;96910.94;;;24.16;79.50
20015;BME280;61787;42.022;23.078;2022-07-29T05:30:54;96909.78;;;24.17;78.49
20015;BME280;61787;42.022;23.078;2022-07-29T05:31:57;96915.63;;;24.19;78.66
20015;BME280;61787;42.022;23.078;2022-07-29T05:33:00;96906.53;;;24.23;79.26
20015;BME280;61787;42.022;23.078;2022-07-29T05:34:02;96911.69;;;24.20;79.24
20015;BME280;61787;42.022;23.078;2022-07-29T05:35:04;96912.50;;;24.17;78.61
20015;BME280;61787;42.022;23.078;2022-07-29T05:36:06;96913.34;;;24.14;78.93
20015;BME280;61787;42.022;23.078;2022-07-29T05:37:09;96914.94;;;24.12;79.18
20015;BME280;61787;42.022;23.078;2022-07-29T05:38:10;96914.59;;;24.10;79.41
20015;BME280;61787;42.022;23.078;2022-07-29T05:39:12;96914.31;;;24.04;78.88
20015;BME280;61787;42.022;23.078;2022-07-29T05:40:14;96921.22;;;23.89;78.72
20015;BME280;61787;42.022;23.078;2022-07-29T05:41:16;96919.38;;;23.83;79.90
20015;BME280;61787;42.022;23.078;2022-07-29T05:42:18;96919.38;;;23.83;80.23
20015;BME280;61787;42.022;23.078;2022-07-29T05:43:19;96927.59;;;23.83;80.06
20015;BME280;61787;42.022;23.078;2022-07-29T05:44:22;96927.28;;;23.77;80.30
20015;BME280;61787;42.022;23.078;2022-07-29T05:45:25;96934.41;;;23.71;80.57
20015;BME280;61787;42.022;23.078;2022-07-29T05:46:27;96926.66;;;23.66;80.55
20015;BME280;61787;42.022;23.078;2022-07-29T05:47:29;96929.09;;;23.60;81.40